sensor_id;sensor_type;location;lat;lon;timestamp;temperature;humidity
26745;DHT22;14342;50.960;13.880;2023-08-06T00:00:24;19.00;99.90
26745;DHT22;14342;50.960;13.880;2023-08-06T00:01:25;19.00;99.90
26745;DHT22;14342;50.960;13.880;2023-08-06T00:02:26;19.00;99.90
26745;DHT22;14342;50.960;13.880;2023-08-06T00:03:27;19.00;99.90
26745;DHT22;14342;50.960;13.880;2023-08-06T00:04:30;19.00;99.90
26745;DHT22;14342;50.960;13.880;2023-08-06T00:05:31;19.00;99.90
26745;DHT22;14342;50.960;13.880;2023-08-06T00:06:32;19.00;99.90
26745;DHT22;14342;50.960;13.880;2023-08-06T00:07:33;19.00;99.90
26745;DHT22;14342;50.960;13.880;2023-08-06T00:08:34;19.00;99.90
26745;DHT22;14342;50.960;13.880;2023-08-06T00:09:35;19.10;99.90
26745;DHT22;14342;50.960;13.880;2023-08-06T00:10:36;19.10;99.90
26745;DHT22;14342;50.960;13.880;2023-08-06T00:11:37;19.00;99.90
26745;DHT22;14342;50.960;13.880;2023-08-06T00:12:39;19.00;99.90
26745;DHT22;14342;50.960;13.880;2023-08-06T00:13:39;19.00;99.90
26745;DHT22;14342;50.960;13.880;2023-08-06T00:14:41;19.00;99.90
26745;DHT22;14342;50.960;13.880;2023-08-06T00:15:42;19.00;99.90
26745;DHT22;14342;50.960;13.880;2023-08-06T00:16:44;19.00;99.90
26745;DHT22;14342;50.960;13.880;2023-08-06T00:17:45;19.30;99.90
26745;DHT22;14342;50.960;13.880;2023-08-06T00:18:46;18.90;99.90
26745;DHT22;14342;50.960;13.880;2023-08-06T00:19:48;19.00;99.90
26745;DHT22;14342;50.960;13.880;2023-08-06T00:20:50;19.10;99.90
26745;DHT22;14342;50.960;13.880;2023-08-06T00:21:52;18.90;99.90
26745;DHT22;14342;50.960;13.880;2023-08-06T00:22:54;18.90;99.90
26745;DHT22;14342;50.960;13.880;2023-08-06T00:23:54;18.90;99.90
26745;DHT22;14342;50.960;13.880;2023-08-06T00:24:56;18.90;99.90
26745;DHT22;14342;50.960;13.880;2023-08-06T00:25:57;18.90;99.90
26745;DHT22;14342;50.960;13.880;2023-08-06T00:26:59;18.80;99.90
26745;DHT22;14342;50.960;13.880;2023-08-06T00:28:00;18.80;99.90
26745;DHT22;14342;50.960;13.880;2023-08-06T00:29:01;18.90;99.90
26745;DHT22;14342;50.960;13.880;2023-08-06T00:30:02;18.90;99.90
26745;DHT22;14342;50.960;13.880;2023-08-06T00:31:04;18.90;99.90
26745;DHT22;14342;50.960;13.880;2023-08-06T00:32:04;18.90;99.90
26745;DHT22;14342;50.960;13.880;2023-08-06T00:33:06;18.90;99.90
26745;DHT22;14342;50.960;13.880;2023-08-06T00:34:06;18.80;99.90
26745;DHT22;14342;50.960;13.880;2023-08-06T00:35:10;18.90;99.90
26745;DHT22;14342;50.960;13.880;2023-08-06T00:36:10;18.90;99.90
26745;DHT22;14342;50.960;13.880;2023-08-06T00:37:12;18.80;99.90
26745;DHT22;14342;50.960;13.880;2023-08-06T00:38:13;18.80;99.90
26745;DHT22;14342;50.960;13.880;2023-08-06T00:39:14;18.90;99.90
26745;DHT22;14342;50.960;13.880;2023-08-06T00:40:15;18.80;99.90
26745;DHT22;14342;50.960;13.880;2023-08-06T00:41:16;18.80;99.90
26745;DHT22;14342;50.960;13.880;2023-08-06T00:42:17;18.80;99.90
26745;DHT22;14342;50.960;13.880;2023-08-06T00:43:21;18.80;99.90
26745;DHT22;14342;50.960;13.880;2023-08-06T00:44:21;18.80;99.90
26745;DHT22;14342;50.960;13.880;2023-08-06T00:45:22;18.80;99.90
26745;DHT22;14342;50.960;13.880;2023-08-06T00:46:23;18.80;99.90
26745;DHT22;14342;50.960;13.880;2023-08-06T00:47:24;18.80;99.90
26745;DHT22;14342;50.960;13.880;2023-08-06T00:48:26;18.80;99.90
26745;DHT22;14342;50.960;13.880;2023-08-06T00:49:27;18.80;99.90
26745;DHT22;14342;50.960;13.880;2023-08-06T00:50:30;18.80;99.90
26745;DHT22;14342;50.960;13.880;2023-08-06T00:51:30;18.80;99.90
26745;DHT22;14342;50.960;13.880;2023-08-06T00:52:33;18.80;99.90
26745;DHT22;14342;50.960;13.880;2023-08-06T00:53:33;18.80;99.90
26745;DHT22;14342;50.960;13.880;2023-08-06T00:54:35;18.80;99.90
26745;DHT22;14342;50.960;13.880;2023-08-06T00:55:36;18.80;99.90
26745;DHT22;14342;50.960;13.880;2023-08-06T00:56:37;18.80;99.90
26745;DHT22;14342;50.960;13.880;2023-08-06T00:57:38;18.80;99.90
26745;DHT22;14342;50.960;13.880;2023-08-06T00:58:40;18.80;99.90
26745;DHT22;14342;50.960;13.880;2023-08-06T00:59:41;18.70;99.90
26745;DHT22;14342;50.960;13.880;2023-08-06T01:00:42;18.70;99.90
26745;DHT22;14342;50.960;13.880;2023-08-06T01:01:43;18.80;99.90
26745;DHT22;14342;50.960;13.880;2023-08-06T01:02:45;18.60;99.90
26745;DHT22;14342;50.960;13.880;2023-08-06T01:03:46;18.60;99.90
26745;DHT22;14342;50.960;13.880;2023-08-06T01:04:47;18.60;99.90
26745;DHT22;14342;50.960;13.880;2023-08-06T01:05:49;18.70;99.90
26745;DHT22;14342;50.960;13.880;2023-08-06T01:06:52;18.70;99.90
26745;DHT22;14342;50.960;13.880;2023-08-06T01:08:01;18.70;99.90
26745;DHT22;14342;50.960;13.880;2023-08-06T01:09:06;18.60;99.90
26745;DHT22;14342;50.960;13.880;2023-08-06T01:10:15;18.60;99.90
26745;DHT22;14342;50.960;13.880;2023-08-06T01:11:21;18.60;99.90
26745;DHT22;14342;50.960;13.880;2023-08-06T01:12:37;18.60;99.90
26745;DHT22;14342;50.960;13.880;2023-08-06T01:13:42;18.60;99.90
26745;DHT22;14342;50.960;13.880;2023-08-06T01:14:46;18.60;99.90
26745;DHT22;14342;50.960;13.880;2023-08-06T01:15:49;18.70;99.90
26745;DHT22;14342;50.960;13.880;2023-08-06T01:16:52;18.70;99.90
26745;DHT22;14342;50.960;13.880;2023-08-06T01:17:54;18.70;99.90
26745;DHT22;14342;50.960;13.880;2023-08-06T01:18:55;18.60;99.90
26745;DHT22;14342;50.960;13.880;2023-08-06T01:19:56;18.50;99.90
26745;DHT22;14342;50.960;13.880;2023-08-06T01:20:58;18.60;99.90
26745;DHT22;14342;50.960;13.880;2023-08-06T01:21:59;18.90;99.90
26745;DHT22;14342;50.960;13.880;2023-08-06T01:23:01;18.60;99.90
26745;DHT22;14342;50.960;13.880;2023-08-06T01:24:01;18.60;99.90
26745;DHT22;14342;50.960;13.880;2023-08-06T01:25:03;18.60;99.90
26745;DHT22;14342;50.960;13.880;2023-08-06T01:26:05;18.50;99.90
26745;DHT22;14342;50.960;13.880;2023-08-06T01:27:11;18.50;99.90
26745;DHT22;14342;50.960;13.880;2023-08-06T01:28:15;18.50;99.90
26745;DHT22;14342;50.960;13.880;2023-08-06T01:29:23;18.50;99.90
26745;DHT22;14342;50.960;13.880;2023-08-06T01:30:27;18.50;99.90
26745;DHT22;14342;50.960;13.880;2023-08-06T01:31:30;18.50;99.90
26745;DHT22;14342;50.960;13.880;2023-08-06T01:32:32;18.50;99.90
26745;DHT22;14342;50.960;13.880;2023-08-06T01:33:35;18.50;99.90
26745;DHT22;14342;50.960;13.880;2023-08-06T01:34:38;18.50;99.90
26745;DHT22;14342;50.960;13.880;2023-08-06T01:35:40;18.50;99.90
26745;DHT22;14342;50.960;13.880;2023-08-06T01:36:42;18.50;99.90
26745;DHT22;14342;50.960;13.880;2023-08-06T01:37:45;18.50;99.90
26745;DHT22;14342;50.960;13.880;2023-08-06T01:38:46;18.80;99.90
26745;DHT22;14342;50.960;13.880;2023-08-06T01:39:47;18.50;99.90
26745;DHT22;14342;50.960;13.880;2023-08-06T01:40:48;18.70;99.90
26745;DHT22;14342;50.960;13.880;2023-08-06T01:41:50;18.50;99.90
26745;DHT22;14342;50.960;13.880;2023-08-06T01:42:50;18.50;99.90
26745;DHT22;14342;50.960;13.880;2023-08-06T01:43:52;18.50;99.90
26745;DHT22;14342;50.960;13.880;2023-08-06T01:44:52;18.50;99.90
26745;DHT22;14342;50.960;13.880;2023-08-06T01:45:54;18.50;99.90
26745;DHT22;14342;50.960;13.880;2023-08-06T01:46:54;18.70;99.90
26745;DHT22;14342;50.960;13.880;2023-08-06T01:47:56;18.50;99.90
26745;DHT22;14342;50.960;13.880;2023-08-06T01:48:57;18.40;99.90
26745;DHT22;14342;50.960;13.880;2023-08-06T01:49:58;18.50;99.90
26745;DHT22;14342;50.960;13.880;2023-08-06T01:50:59;18.50;99.90
26745;DHT22;14342;50.960;13.880;2023-08-06T01:52:02;18.50;99.90
26745;DHT22;14342;50.960;13.880;2023-08-06T01:53:03;18.40;99.90
26745;DHT22;14342;50.960;13.880;2023-08-06T01:54:04;18.50;99.90
26745;DHT22;14342;50.960;13.880;2023-08-06T01:55:05;18.50;99.90
26745;DHT22;14342;50.960;13.880;2023-08-06T01:56:07;18.50;99.90
26745;DHT22;14342;50.960;13.880;2023-08-06T01:57:07;18.50;99.90
26745;DHT22;14342;50.960;13.880;2023-08-06T01:58:09;18.50;99.90
26745;DHT22;14342;50.960;13.880;2023-08-06T01:59:09;18.40;99.90
26745;DHT22;14342;50.960;13.880;2023-08-06T02:00:11;18.30;99.90
26745;DHT22;14342;50.960;13.880;2023-08-06T02:01:12;18.20;99.90
26745;DHT22;14342;50.960;13.880;2023-08-06T02:02:14;18.20;99.90
26745;DHT22;14342;50.960;13.880;2023-08-06T02:03:14;18.20;99.90
26745;DHT22;14342;50.960;13.880;2023-08-06T02:04:15;18.30;99.90
26745;DHT22;14342;50.960;13.880;2023-08-06T02:05:17;18.30;99.90
26745;DHT22;14342;50.960;13.880;2023-08-06T02:06:17;18.30;99.90
26745;DHT22;14342;50.960;13.880;2023-08-06T02:07:20;18.30;99.90
26745;DHT22;14342;50.960;13.880;2023-08-06T02:08:21;18.30;99.90
26745;DHT22;14342;50.960;13.880;2023-08-06T02:09:22;18.30;99.90
26745;DHT22;14342;50.960;13.880;2023-08-06T02:10:23;18.40;99.90
26745;DHT22;14342;50.960;13.880;2023-08-06T02:11:25;18.60;99.90
26745;DHT22;14342;50.960;13.880;2023-08-06T02:12:26;18.60;99.90
26745;DHT22;14342;50.960;13.880;2023-08-06T02:13:28;18.40;99.90
26745;DHT22;14342;50.960;13.880;2023-08-06T02:14:28;18.40;99.90
26745;DHT22;14342;50.960;13.880;2023-08-06T02:15:30;18.40;99.90
26745;DHT22;14342;50.960;13.880;2023-08-06T02:16:31;18.40;99.90
26745;DHT22;14342;50.960;13.880;2023-08-06T02:17:32;18.70;99.90
26745;DHT22;14342;50.960;13.880;2023-08-06T02:18:33;18.50;99.90
26745;DHT22;14342;50.960;13.880;2023-08-06T02:19:34;18.50;99.90
26745;DHT22;14342;50.960;13.880;2023-08-06T02:20:35;18.50;99.90
26745;DHT22;14342;50.960;13.880;2023-08-06T02:21:36;18.50;99.90
26745;DHT22;14342;50.960;13.880;2023-08-06T02:22:38;18.50;99.90
26745;DHT22;14342;50.960;13.880;2023-08-06T02:23:40;18.50;99.90
26745;DHT22;14342;50.960;13.880;2023-08-06T02:24:41;18.50;99.90
26745;DHT22;14342;50.960;13.880;2023-08-06T02:25:42;18.50;99.90
26745;DHT22;14342;50.960;13.880;2023-08-06T02:26:43;18.50;99.90
26745;DHT22;14342;50.960;13.880;2023-08-06T02:27:44;18.90;99.90
26745;DHT22;14342;50.960;13.880;2023-08-06T02:28:45;18.50;99.90
26745;DHT22;14342;50.960;13.880;2023-08-06T02:29:46;18.50;99.90
26745;DHT22;14342;50.960;13.880;2023-08-06T02:30:49;18.50;99.90
26745;DHT22;14342;50.960;13.880;2023-08-06T02:31:50;18.60;99.90
26745;DHT22;14342;50.960;13.880;2023-08-06T02:32:52;18.60;99.90
26745;DHT22;14342;50.960;13.880;2023-08-06T02:33:52;18.50;99.90
26745;DHT22;14342;50.960;13.880;2023-08-06T02:34:55;18.50;99.90
26745;DHT22;14342;50.960;13.880;2023-08-06T02:35:59;18.40;99.90
26745;DHT22;14342;50.960;13.880;2023-08-06T02:37:00;18.40;99.90
26745;DHT22;14342;50.960;13.880;2023-08-06T02:38:02;18.40;99.90
26745;DHT22;14342;50.960;13.880;2023-08-06T02:39:03;18.50;99.90
26745;DHT22;14342;50.960;13.880;2023-08-06T02:40:05;18.60;99.90
26745;DHT22;14342;50.960;13.880;2023-08-06T02:41:06;18.50;99.90
26745;DHT22;14342;50.960;13.880;2023-08-06T02:42:07;18.50;99.90
26745;DHT22;14342;50.960;13.880;2023-08-06T02:43:08;18.50;99.90
26745;DHT22;14342;50.960;13.880;2023-08-06T02:44:10;18.50;99.90
26745;DHT22;14342;50.960;13.880;2023-08-06T02:45:10;18.50;99.90
26745;DHT22;14342;50.960;13.880;2023-08-06T02:46:12;18.60;99.90
26745;DHT22;14342;50.960;13.880;2023-08-06T02:47:12;18.40;99.90
26745;DHT22;14342;50.960;13.880;2023-08-06T02:48:14;18.40;99.90
26745;DHT22;14342;50.960;13.880;2023-08-06T02:49:15;18.40;99.90
26745;DHT22;14342;50.960;13.880;2023-08-06T02:50:16;18.40;99.90
26745;DHT22;14342;50.960;13.880;2023-08-06T02:51:17;18.40;99.90
26745;DHT22;14342;50.960;13.880;2023-08-06T02:52:18;18.40;99.90
26745;DHT22;14342;50.960;13.880;2023-08-06T02:53:20;18.30;99.90
26745;DHT22;14342;50.960;13.880;2023-08-06T02:54:21;18.20;99.90
26745;DHT22;14342;50.960;13.880;2023-08-06T02:55:22;18.20;99.90
26745;DHT22;14342;50.960;13.880;2023-08-06T02:56:23;18.00;99.90
26745;DHT22;14342;50.960;13.880;2023-08-06T02:57:24;18.10;99.90
26745;DHT22;14342;50.960;13.880;2023-08-06T02:58:25;18.00;99.90
26745;DHT22;14342;50.960;13.880;2023-08-06T02:59:26;18.10;99.90
26745;DHT22;14342;50.960;13.880;2023-08-06T03:00:27;18.10;99.90
26745;DHT22;14342;50.960;13.880;2023-08-06T03:01:28;18.10;99.90
26745;DHT22;14342;50.960;13.880;2023-08-06T03:02:29;18.10;99.90
26745;DHT22;14342;50.960;13.880;2023-08-06T03:03:30;18.10;99.90
26745;DHT22;14342;50.960;13.880;2023-08-06T03:04:33;18.10;99.90
26745;DHT22;14342;50.960;13.880;2023-08-06T03:05:34;18.10;99.90
26745;DHT22;14342;50.960;13.880;2023-08-06T03:06:35;18.10;99.90
26745;DHT22;14342;50.960;13.880;2023-08-06T03:07:37;18.10;99.90
26745;DHT22;14342;50.960;13.880;2023-08-06T03:08:39;18.10;99.90
26745;DHT22;14342;50.960;13.880;2023-08-06T03:09:39;18.10;99.90
26745;DHT22;14342;50.960;13.880;2023-08-06T03:10:41;18.10;99.90
26745;DHT22;14342;50.960;13.880;2023-08-06T03:11:42;18.10;99.90
26745;DHT22;14342;50.960;13.880;2023-08-06T03:12:43;18.20;99.90
26745;DHT22;14342;50.960;13.880;2023-08-06T03:13:44;18.20;99.90
26745;DHT22;14342;50.960;13.880;2023-08-06T03:14:45;18.10;99.90
26745;DHT22;14342;50.960;13.880;2023-08-06T03:15:52;18.10;99.90
26745;DHT22;14342;50.960;13.880;2023-08-06T03:16:53;18.00;99.90
26745;DHT22;14342;50.960;13.880;2023-08-06T03:17:55;18.00;99.90
26745;DHT22;14342;50.960;13.880;2023-08-06T03:18:56;18.00;99.90
26745;DHT22;14342;50.960;13.880;2023-08-06T03:19:57;18.10;99.90
26745;DHT22;14342;50.960;13.880;2023-08-06T03:20:58;18.00;99.90
26745;DHT22;14342;50.960;13.880;2023-08-06T03:21:59;18.00;99.90
26745;DHT22;14342;50.960;13.880;2023-08-06T03:23:00;18.00;99.90
26745;DHT22;14342;50.960;13.880;2023-08-06T03:24:03;17.90;99.90
26745;DHT22;14342;50.960;13.880;2023-08-06T03:25:04;18.00;99.90
26745;DHT22;14342;50.960;13.880;2023-08-06T03:26:06;18.00;99.90
26745;DHT22;14342;50.960;13.880;2023-08-06T03:27:06;18.20;99.90
26745;DHT22;14342;50.960;13.880;2023-08-06T03:28:08;18.00;99.90
26745;DHT22;14342;50.960;13.880;2023-08-06T03:29:09;18.00;99.90
26745;DHT22;14342;50.960;13.880;2023-08-06T03:30:10;18.00;99.90
26745;DHT22;14342;50.960;13.880;2023-08-06T03:31:11;18.00;99.90
26745;DHT22;14342;50.960;13.880;2023-08-06T03:32:12;18.00;99.90
26745;DHT22;14342;50.960;13.880;2023-08-06T03:33:13;18.00;99.90
26745;DHT22;14342;50.960;13.880;2023-08-06T03:34:14;18.00;99.90
26745;DHT22;14342;50.960;13.880;2023-08-06T03:35:15;18.00;99.90
26745;DHT22;14342;50.960;13.880;2023-08-06T03:36:17;18.00;99.90
26745;DHT22;14342;50.960;13.880;2023-08-06T03:37:18;18.00;99.90
26745;DHT22;14342;50.960;13.880;2023-08-06T03:38:19;18.10;99.90
26745;DHT22;14342;50.960;13.880;2023-08-06T03:39:22;18.00;99.90
26745;DHT22;14342;50.960;13.880;2023-08-06T03:40:22;18.20;99.90
26745;DHT22;14342;50.960;13.880;2023-08-06T03:41:24;17.80;99.90
26745;DHT22;14342;50.960;13.880;2023-08-06T03:42:25;17.80;99.90
26745;DHT22;14342;50.960;13.880;2023-08-06T03:43:26;17.70;99.90
26745;DHT22;14342;50.960;13.880;2023-08-06T03:44:27;17.70;99.90
26745;DHT22;14342;50.960;13.880;2023-08-06T03:45:28;17.70;99.90
26745;DHT22;14342;50.960;13.880;2023-08-06T03:46:29;17.70;99.90
26745;DHT22;14342;50.960;13.880;2023-08-06T03:47:32;17.70;99.90
26745;DHT22;14342;50.960;13.880;2023-08-06T03:48:33;17.70;99.90
26745;DHT22;14342;50.960;13.880;2023-08-06T03:49:34;17.70;99.90
26745;DHT22;14342;50.960;13.880;2023-08-06T03:50:35;17.70;99.90
26745;DHT22;14342;50.960;13.880;2023-08-06T03:51:37;17.70;99.90
26745;DHT22;14342;50.960;13.880;2023-08-06T03:52:37;17.70;99.90
26745;DHT22;14342;50.960;13.880;2023-08-06T03:53:39;17.80;99.90
26745;DHT22;14342;50.960;13.880;2023-08-06T03:54:41;17.80;99.90
26745;DHT22;14342;50.960;13.880;2023-08-06T03:55:43;17.80;99.90
26745;DHT22;14342;50.960;13.880;2023-08-06T03:56:44;18.10;99.90
26745;DHT22;14342;50.960;13.880;2023-08-06T03:57:45;17.90;99.90
26745;DHT22;14342;50.960;13.880;2023-08-06T03:58:46;17.90;99.90
26745;DHT22;14342;50.960;13.880;2023-08-06T03:59:47;18.20;99.90
26745;DHT22;14342;50.960;13.880;2023-08-06T04:00:48;18.00;99.90
26745;DHT22;14342;50.960;13.880;2023-08-06T04:01:50;18.10;99.90
26745;DHT22;14342;50.960;13.880;2023-08-06T04:02:50;18.00;99.90
26745;DHT22;14342;50.960;13.880;2023-08-06T04:03:51;18.10;99.90
26745;DHT22;14342;50.960;13.880;2023-08-06T04:04:53;18.10;99.90
26745;DHT22;14342;50.960;13.880;2023-08-06T04:05:54;18.10;99.90
26745;DHT22;14342;50.960;13.880;2023-08-06T04:06:56;18.00;99.90
26745;DHT22;14342;50.960;13.880;2023-08-06T04:07:56;18.00;99.90
26745;DHT22;14342;50.960;13.880;2023-08-06T04:08:57;18.00;99.90
26745;DHT22;14342;50.960;13.880;2023-08-06T04:10:00;18.20;99.90
26745;DHT22;14342;50.960;13.880;2023-08-06T04:11:01;18.20;99.90
26745;DHT22;14342;50.960;13.880;2023-08-06T04:12:04;18.10;99.90
26745;DHT22;14342;50.960;13.880;2023-08-06T04:13:05;18.10;99.90
26745;DHT22;14342;50.960;13.880;2023-08-06T04:14:06;18.20;99.90
26745;DHT22;14342;50.960;13.880;2023-08-06T04:15:07;18.20;99.90
26745;DHT22;14342;50.960;13.880;2023-08-06T04:16:09;18.20;99.90
26745;DHT22;14342;50.960;13.880;2023-08-06T04:17:09;18.20;99.90
26745;DHT22;14342;50.960;13.880;2023-08-06T04:18:11;18.20;99.90
26745;DHT22;14342;50.960;13.880;2023-08-06T04:19:11;18.50;99.90
26745;DHT22;14342;50.960;13.880;2023-08-06T04:20:13;18.30;99.90
26745;DHT22;14342;50.960;13.880;2023-08-06T04:21:13;18.60;99.90
26745;DHT22;14342;50.960;13.880;2023-08-06T04:22:15;18.30;99.90
26745;DHT22;14342;50.960;13.880;2023-08-06T04:23:16;18.40;99.90
26745;DHT22;14342;50.960;13.880;2023-08-06T04:24:17;18.30;99.90
26745;DHT22;14342;50.960;13.880;2023-08-06T04:25:19;18.40;99.90
26745;DHT22;14342;50.960;13.880;2023-08-06T04:26:21;18.40;99.90
26745;DHT22;14342;50.960;13.880;2023-08-06T04:27:22;18.40;99.90
26745;DHT22;14342;50.960;13.880;2023-08-06T04:28:23;18.20;99.90
26745;DHT22;14342;50.960;13.880;2023-08-06T04:29:24;18.00;99.90
26745;DHT22;14342;50.960;13.880;2023-08-06T04:30:25;17.90;99.90
26745;DHT22;14342;50.960;13.880;2023-08-06T04:31:26;17.90;99.90
26745;DHT22;14342;50.960;13.880;2023-08-06T04:32:28;17.90;99.90
26745;DHT22;14342;50.960;13.880;2023-08-06T04:33:28;17.90;99.90
26745;DHT22;14342;50.960;13.880;2023-08-06T04:34:30;18.00;99.90
26745;DHT22;14342;50.960;13.880;2023-08-06T04:35:30;18.00;99.90
26745;DHT22;14342;50.960;13.880;2023-08-06T04:36:32;18.00;99.90
26745;DHT22;14342;50.960;13.880;2023-08-06T04:37:32;18.10;99.90
26745;DHT22;14342;50.960;13.880;2023-08-06T04:38:34;18.10;99.90
26745;DHT22;14342;50.960;13.880;2023-08-06T04:39:35;18.10;99.90
26745;DHT22;14342;50.960;13.880;2023-08-06T04:40:38;18.20;99.90
26745;DHT22;14342;50.960;13.880;2023-08-06T04:41:38;18.20;99.90
26745;DHT22;14342;50.960;13.880;2023-08-06T04:42:40;18.20;99.90
26745;DHT22;14342;50.960;13.880;2023-08-06T04:43:40;18.30;99.90
26745;DHT22;14342;50.960;13.880;2023-08-06T04:44:42;18.30;99.90
26745;DHT22;14342;50.960;13.880;2023-08-06T04:45:45;18.30;99.90
26745;DHT22;14342;50.960;13.880;2023-08-06T04:46:46;18.30;99.90
26745;DHT22;14342;50.960;13.880;2023-08-06T04:47:47;18.30;99.90
26745;DHT22;14342;50.960;13.880;2023-08-06T04:48:48;18.30;99.90
26745;DHT22;14342;50.960;13.880;2023-08-06T04:49:49;18.30;99.90
26745;DHT22;14342;50.960;13.880;2023-08-06T04:50:50;18.30;99.90
26745;DHT22;14342;50.960;13.880;2023-08-06T04:51:51;18.30;99.90
26745;DHT22;14342;50.960;13.880;2023-08-06T04:52:52;18.30;99.90
26745;DHT22;14342;50.960;13.880;2023-08-06T04:53:56;18.30;99.90
26745;DHT22;14342;50.960;13.880;2023-08-06T04:54:56;18.20;99.90
26745;DHT22;14342;50.960;13.880;2023-08-06T04:55:59;18.30;99.90
26745;DHT22;14342;50.960;13.880;2023-08-06T04:57:00;18.30;99.90
26745;DHT22;14342;50.960;13.880;2023-08-06T04:58:01;18.20;99.90
26745;DHT22;14342;50.960;13.880;2023-08-06T04:59:02;18.20;99.90
26745;DHT22;14342;50.960;13.880;2023-08-06T05:00:04;18.20;99.90
26745;DHT22;14342;50.960;13.880;2023-08-06T05:01:05;18.30;99.90
26745;DHT22;14342;50.960;13.880;2023-08-06T05:02:07;18.30;99.90
26745;DHT22;14342;50.960;13.880;2023-08-06T05:03:07;18.30;99.90
26745;DHT22;14342;50.960;13.880;2023-08-06T05:04:08;18.30;99.90
26745;DHT22;14342;50.960;13.880;2023-08-06T05:05:09;18.40;99.90
26745;DHT22;14342;50.960;13.880;2023-08-06T05:06:10;18.30;99.90
26745;DHT22;14342;50.960;13.880;2023-08-06T05:07:12;18.30;99.90
26745;DHT22;14342;50.960;13.880;2023-08-06T05:08:13;18.40;99.90
26745;DHT22;14342;50.960;13.880;2023-08-06T05:09:16;18.40;99.90
26745;DHT22;14342;50.960;13.880;2023-08-06T05:10:16;18.40;99.90
26745;DHT22;14342;50.960;13.880;2023-08-06T05:11:19;18.40;99.90
26745;DHT22;14342;50.960;13.880;2023-08-06T05:12:20;18.40;99.90
26745;DHT22;14342;50.960;13.880;2023-08-06T05:13:21;18.40;99.90
26745;DHT22;14342;50.960;13.880;2023-08-06T05:14:22;18.40;99.90
26745;DHT22;14342;50.960;13.880;2023-08-06T05:15:23;18.30;99.90
26745;DHT22;14342;50.960;13.880;2023-08-06T05:16:25;18.30;99.90
26745;DHT22;14342;50.960;13.880;2023-08-06T05:17:27;18.30;99.90
26745;DHT22;14342;50.960;13.880;2023-08-06T05:18:27;18.40;99.90
26745;DHT22;14342;50.960;13.880;2023-08-06T05:19:30;18.40;99.90
26745;DHT22;14342;50.960;13.880;2023-08-06T05:20:31;18.40;99.90
26745;DHT22;14342;50.960;13.880;2023-08-06T05:21:36;18.40;99.90
26745;DHT22;14342;50.960;13.880;2023-08-06T05:22:37;18.30;99.90
26745;DHT22;14342;50.960;13.880;2023-08-06T05:23:39;18.30;99.90
26745;DHT22;14342;50.960;13.880;2023-08-06T05:24:39;18.30;99.90
26745;DHT22;14342;50.960;13.880;2023-08-06T05:25:41;18.30;99.90
26745;DHT22;14342;50.960;13.880;2023-08-06T05:26:43;18.30;99.90
26745;DHT22;14342;50.960;13.880;2023-08-06T05:27:46;18.30;99.90
26745;DHT22;14342;50.960;13.880;2023-08-06T05:28:47;18.40;99.90
26745;DHT22;14342;50.960;13.880;2023-08-06T05:29:49;18.40;99.90
26745;DHT22;14342;50.960;13.880;2023-08-06T05:30:49;18.40;99.90
26745;DHT22;14342;50.960;13.880;2023-08-06T05:31:51;18.40;99.90
26745;DHT22;14342;50.960;13.880;2023-08-06T05:32:51;18.40;99.90
26745;DHT22;14342;50.960;13.880;2023-08-06T05:33:53;18.40;99.90
26745;DHT22;14342;50.960;13.880;2023-08-06T05:34:54;18.30;99.90
26745;DHT22;14342;50.960;13.880;2023-08-06T05:35:55;18.30;99.90
26745;DHT22;14342;50.960;13.880;2023-08-06T05:36:56;18.30;99.90
26745;DHT22;14342;50.960;13.880;2023-08-06T05:37:57;18.40;99.90
26745;DHT22;14342;50.960;13.880;2023-08-06T05:38:58;18.50;99.90
26745;DHT22;14342;50.960;13.880;2023-08-06T05:40:00;18.30;99.90
26745;DHT22;14342;50.960;13.880;2023-08-06T05:41:01;18.30;99.90
26745;DHT22;14342;50.960;13.880;2023-08-06T05:42:05;18.60;99.90
26745;DHT22;14342;50.960;13.880;2023-08-06T05:43:06;18.30;99.90
26745;DHT22;14342;50.960;13.880;2023-08-06T05:44:07;18.30;99.90
26745;DHT22;14342;50.960;13.880;2023-08-06T05:45:08;18.30;99.90
26745;DHT22;14342;50.960;13.880;2023-08-06T05:46:10;18.30;99.90
26745;DHT22;14342;50.960;13.880;2023-08-06T05:47:11;18.30;99.90
26745;DHT22;14342;50.960;13.880;2023-08-06T05:48:13;18.40;99.90
26745;DHT22;14342;50.960;13.880;2023-08-06T05:49:13;18.40;99.90
26745;DHT22;14342;50.960;13.880;2023-08-06T05:50:14;18.40;99.90
26745;DHT22;14342;50.960;13.880;2023-08-06T05:51:16;18.40;99.90
26745;DHT22;14342;50.960;13.880;2023-08-06T05:52:17;18.40;99.90
26745;DHT22;14342;50.960;13.880;2023-08-06T05:53:18;18.40;99.90
26745;DHT22;14342;50.960;13.880;2023-08-06T05:54:19;18.40;99.90
26745;DHT22;14342;50.960;13.880;2023-08-06T05:55:20;18.50;99.90
26745;DHT22;14342;50.960;13.880;2023-08-06T05:56:21;18.40;99.90
26745;DHT22;14342;50.960;13.880;2023-08-06T05:57:24;18.40;99.90
26745;DHT22;14342;50.960;13.880;2023-08-06T05:58:25;18.40;99.90
26745;DHT22;14342;50.960;13.880;2023-08-06T05:59:29;18.40;99.90
26745;DHT22;14342;50.960;13.880;2023-08-06T06:00:30;18.40;99.90
26745;DHT22;14342;50.960;13.880;2023-08-06T06:01:31;18.40;99.90
26745;DHT22;14342;50.960;13.880;2023-08-06T06:02:32;18.40;99.90
26745;DHT22;14342;50.960;13.880;2023-08-06T06:03:32;18.40;99.90
26745;DHT22;14342;50.960;13.880;2023-08-06T06:04:34;18.30;99.90
26745;DHT22;14342;50.960;13.880;2023-08-06T06:05:37;18.40;99.90
26745;DHT22;14342;50.960;13.880;2023-08-06T06:06:38;18.30;99.90
26745;DHT22;14342;50.960;13.880;2023-08-06T06:07:39;18.20;99.90
26745;DHT22;14342;50.960;13.880;2023-08-06T06:08:40;18.20;99.90
26745;DHT22;14342;50.960;13.880;2023-08-06T06:09:41;18.20;99.90
26745;DHT22;14342;50.960;13.880;2023-08-06T06:10:43;18.20;99.90
26745;DHT22;14342;50.960;13.880;2023-08-06T06:11:43;18.20;99.90
26745;DHT22;14342;50.960;13.880;2023-08-06T06:12:46;18.20;99.90
26745;DHT22;14342;50.960;13.880;2023-08-06T06:13:47;18.20;99.90
26745;DHT22;14342;50.960;13.880;2023-08-06T06:14:49;18.20;99.90
26745;DHT22;14342;50.960;13.880;2023-08-06T06:15:49;18.20;99.90
26745;DHT22;14342;50.960;13.880;2023-08-06T06:16:51;18.20;99.90
26745;DHT22;14342;50.960;13.880;2023-08-06T06:17:53;18.20;99.90
26745;DHT22;14342;50.960;13.880;2023-08-06T06:18:54;18.20;99.90
26745;DHT22;14342;50.960;13.880;2023-08-06T06:19:56;18.20;99.90
26745;DHT22;14342;50.960;13.880;2023-08-06T06:20:57;18.10;99.90
26745;DHT22;14342;50.960;13.880;2023-08-06T06:21:58;18.10;99.90